Latest Weather Observations for Ferny Creek

IDV60801

Issued at 5:32 pm EDT Thursday 23 February 2017 (issued every 30 minutes, with the page automatically refreshed every 10 minutes)

About weather observations | Map of weather stations | Latest weather observations for VIC | Other Formats
Station Details ID: 086266 Name: FERNY CREEK Lat: -37.87 Lon: 145.35 Height: 512.9 m
Data from the previous 72 hours. | See also: Recent months at Ferny Creek
Date/Time
EDT
Temp
°C
App
Temp
°C
Dew
Point
°C
Rel
Hum
%
Delta-T
°C
Wind Press
QNH
hPa
Press
MSL
hPa
Rain since
9am
mm
Dir  Spd
km/h
Gust
km/h
Spd
kts
Gust
kts
23/05:30pm 21.0 20.7 11.6 55 5.3 SW 4 7 2 4 1019.8 1018.3 0.0
23/05:00pm 21.8 21.7 13.4 59 4.9 WSW 6 13 3 7 1019.5 1017.9 0.0
23/04:30pm 21.1 20.6 12.5 58 5.0 SW 7 17 4 9 1019.5 1017.9 0.0
23/04:00pm 20.6 19.9 11.5 56 5.1 SW 6 11 3 6 1019.5 1017.9 0.0
23/03:30pm 20.6 19.8 11.8 57 5.0 WSW 7 17 4 9 1019.5 1017.9 0.0
23/03:00pm 19.6 18.9 11.4 59 4.6 SW 6 15 3 8 1019.7 1018.1 0.0
23/02:30pm 20.1 19.6 12.8 63 4.2 SW 7 11 4 6 1019.7 1018.1 0.0
23/02:00pm 18.9 18.5 12.4 66 3.7 SSW 6 17 3 9 1019.7 1018.1 0.0
23/01:30pm 19.5 19.1 12.5 64 4.0 SW 6 15 3 8 1019.6 1018.0 0.0
23/01:00pm 18.5 17.9 11.8 65 3.8 W 6 9 3 5 1019.7 1018.1 0.0
23/12:30pm 18.7 17.8 11.5 63 4.0 W 7 13 4 7 1019.7 1018.1 0.0
23/12:00pm 17.4 16.1 11.2 67 3.4 SW 9 19 5 10 1019.7 1018.1 0.0
23/11:30am 17.4 16.7 11.4 68 3.3 W 6 13 3 7 1019.5 1017.9 0.0
23/11:00am 17.4 16.6 11.0 66 3.5 WSW 6 22 3 12 1019.4 1017.8 0.0
23/10:30am 17.6 16.9 11.4 67 3.5 W 6 11 3 6 1019.2 1017.6 0.0
23/10:00am 17.5 17.3 11.8 69 3.2 WSW 4 11 2 6 1018.7 1017.2 0.0
23/09:30am 17.9 17.5 12.4 70 3.1 W 6 11 3 6 1018.3 1016.8 0.0
23/09:00am 17.6 17.6 11.2 66 3.5 W 2 7 1 4 1018.0 1016.4 0.0
23/08:30am 17.1 17.0 10.7 66 3.5 WSW 2 7 1 4 1017.5 1015.9 0.0
23/08:00am 15.8 15.8 11.2 74 2.5 WSW 2 4 1 2 1017.1 1015.5 0.0
23/07:30am 14.2 13.8 9.8 75 2.3 WNW 2 4 1 2 1016.4 1014.9 0.0
23/07:00am 13.4 13.3 9.3 76 2.1 CALM 0 4 0 2 1015.9 1014.3 0.0
23/06:30am 13.8 13.7 9.5 75 2.3 CALM 0 4 0 2 1015.5 1013.9 0.0
23/06:00am 13.9 13.3 9.1 73 2.5 WNW 2 7 1 4 1015.2 1013.6 0.0
23/05:30am 13.9 13.7 9.1 73 2.5 CALM 0 2 0 1 1015.0 1013.4 0.0
23/05:00am 14.1 13.9 9.1 72 2.6 CALM 0 0 0 0 1014.6 1013.0 0.0
23/04:30am 14.5 14.4 9.3 71 2.7 CALM 0 0 0 0 1014.5 1012.9 0.0
23/04:00am 14.8 14.7 9.4 70 2.9 CALM 0 0 0 0 1014.3 1012.7 0.0
23/03:30am 15.1 14.9 9.0 67 3.2 CALM 0 0 0 0 1014.2 1012.6 0.0
23/03:00am 15.6 15.1 9.5 67 3.2 SW 2 7 1 4 1014.2 1012.6 0.0
23/02:30am 15.9 15.8 9.6 66 3.4 CALM 0 0 0 0 1014.3 1012.7 0.0
23/02:00am 15.9 15.8 9.6 66 3.4 CALM 0 0 0 0 1014.2 1012.6 0.0
23/01:30am 16.7 16.1 9.1 61 4.0 WNW 2 7 1 4 1014.3 1012.7 0.0
23/01:00am 16.0 15.3 10.1 68 3.2 SSW 4 9 2 5 1013.3 1011.7 0.0
23/12:30am 16.3 15.4 10.8 70 3.0 SSW 6 15 3 8 1013.3 1011.7 0.0
23/12:00am 17.9 15.9 10.3 61 4.2 SW 11 20 6 11 1013.2 1011.6 0.0
 
Date/Time
EDT
Temp
°C
App
Temp
°C
Dew
Point
°C
Rel
Hum
%
Delta-T
°C
Wind Press
QNH
hPa
Press
MSL
hPa
Rain since
9am
mm
Dir  Spd
km/h
Gust
km/h
Spd
kts
Gust
kts
22/11:51pm 19.3 17.4 8.9 51 5.6 WSW 9 20 5 11 1012.9 1011.2 0.0
22/11:30pm 24.4 21.6 3.1 25 10.6 SSW 7 15 4 8 1012.4 1010.8 0.0
22/11:00pm 26.9 23.2 -0.2 17 12.9 N 9 20 5 11 1011.6 1010.0 0.0
22/10:30pm 27.1 23.4 0.0 17 13.0 N 9 24 5 13 1011.6 1010.0 0.0
22/10:00pm 26.7 23.1 0.4 18 12.7 NNE 9 26 5 14 1011.6 1010.0 0.0
22/09:30pm 26.5 23.2 0.3 18 12.6 NNE 7 17 4 9 1011.6 1010.0 0.0
22/09:00pm 26.4 22.8 0.9 19 12.4 NNE 9 22 5 12 1011.6 1010.0 0.0
22/08:30pm 26.4 22.8 0.9 19 12.4 NNE 9 20 5 11 1011.5 1009.9 0.0
22/08:00pm 26.1 22.7 2.1 21 11.9 NNE 9 19 5 10 1011.4 1009.8 0.0
22/07:30pm 26.7 23.3 1.9 20 12.3 NNE 9 20 5 11 1011.4 1009.8 0.0
22/07:00pm 26.8 23.5 2.7 21 12.1 N 9 22 5 12 1011.7 1010.1 0.0
22/06:30pm 26.2 23.8 4.1 24 11.3 N 6 20 3 11 1012.0 1010.4 0.0
22/06:00pm 26.4 24.1 4.8 25 11.2 N 6 17 3 9 1012.2 1010.6 0.0
22/05:30pm 26.3 23.8 4.7 25 11.2 N 7 17 4 9 1012.3 1010.7 0.0
22/05:00pm 26.7 23.3 3.9 23 11.7 N 11 33 6 18 1012.4 1010.8 0.0
22/04:30pm 27.1 22.9 3.6 22 12.0 N 15 32 8 17 1012.4 1010.8 0.0
22/04:00pm 26.9 23.1 4.0 23 11.8 NNE 13 32 7 17 1012.5 1010.9 0.0
22/03:30pm 26.6 23.1 5.5 26 11.1 NNE 13 22 7 12 1013.3 1011.7 0.0
22/03:00pm 26.4 23.5 6.4 28 10.7 N 11 26 6 14 1013.7 1012.1 0.0
22/02:30pm 25.6 22.4 6.8 30 10.1 NNE 13 32 7 17 1014.4 1012.8 0.0
22/02:00pm 25.8 23.2 5.9 28 10.5 N 9 24 5 13 1015.0 1013.4 0.0
22/01:30pm 24.7 22.3 6.9 32 9.5 NNE 9 20 5 11 1015.3 1013.7 0.0
22/01:00pm 24.1 22.1 7.3 34 9.0 NNW 7 20 4 11 1015.7 1014.1 0.0
22/12:30pm 23.1 21.0 6.8 35 8.6 N 7 15 4 8 1016.1 1014.5 0.0
22/12:00pm 22.7 19.8 6.5 35 8.5 NNW 11 30 6 16 1016.4 1014.9 0.0
22/11:30am 22.3 20.1 5.3 33 8.7 N 6 13 3 7 1016.9 1015.3 0.0
22/11:00am 22.1 19.1 5.9 35 8.4 NNE 11 20 6 11 1017.0 1015.4 0.0
22/10:30am 21.6 18.3 4.7 33 8.5 NNE 11 26 6 14 1016.7 1015.2 0.0
22/10:00am 21.1 18.1 4.2 33 8.4 NNE 9 20 5 11 1017.1 1015.5 0.0
22/09:30am 20.3 17.1 3.1 32 8.3 NNE 9 26 5 14 1017.0 1015.4 0.0
22/09:00am 19.8 16.8 3.9 35 7.8 NNE 9 20 5 11 1017.1 1015.5 0.0
22/08:30am 19.4 16.2 3.2 34 7.8 N 9 19 5 10 1017.1 1015.5 0.0
22/08:00am 18.6 15.8 2.9 35 7.5 N 7 17 4 9 1017.0 1015.4 0.0
22/07:30am 17.1 14.3 3.1 39 6.6 NNE 7 17 4 9 1017.0 1015.4 0.0
22/07:00am 16.1 13.4 2.9 41 6.2 NE 6 13 3 7 1016.9 1015.3 0.0
22/06:30am 15.8 13.0 2.9 42 6.0 NE 7 13 4 7 1016.5 1015.0 0.0
22/06:00am 16.1 13.2 2.5 40 6.3 NE 7 13 4 7 1016.4 1014.9 0.0
22/05:30am 15.7 13.0 2.8 42 6.0 NNE 6 9 3 5 1016.5 1015.0 0.0
22/05:00am 15.9 13.2 2.7 41 6.1 NNE 6 9 3 5 1016.7 1015.2 0.0
22/04:30am 16.3 13.6 2.7 40 6.3 NNE 6 13 3 7 1017.0 1015.4 0.0
22/04:00am 15.5 12.8 2.7 42 5.9 NNE 6 11 3 6 1017.2 1015.6 0.0
22/03:30am 15.5 12.9 3.0 43 5.8 NNE 6 13 3 7 1017.4 1015.8 0.0
22/03:00am 14.8 12.9 2.7 44 5.6 NNE 2 7 1 4 1017.6 1016.0 0.0
22/02:30am 15.4 13.9 2.9 43 5.8 CALM 0 2 0 1 1017.9 1016.3 0.0
22/02:00am 15.1 13.2 3.0 44 5.6 N 2 6 1 3 1018.2 1016.7 0.0
22/01:30am 15.3 13.8 2.8 43 5.8 CALM 0 0 0 0 1018.6 1017.1 0.0
22/01:00am 15.7 13.9 3.5 44 5.7 NNE 2 6 1 3 1018.9 1017.3 0.0
22/12:30am 14.9 13.3 4.6 50 4.9 NNE 2 7 1 4 1019.2 1017.6 0.0
22/12:00am 15.1 13.2 7.4 60 3.9 NE 7 13 4 7 1019.3 1017.7 0.0
 
Date/Time
EDT
Temp
°C
App
Temp
°C
Dew
Point
°C
Rel
Hum
%
Delta-T
°C
Wind Press
QNH
hPa
Press
MSL
hPa
Rain since
9am
mm
Dir  Spd
km/h
Gust
km/h
Spd
kts
Gust
kts
21/11:30pm 15.0 13.4 7.8 62 3.7 NE 6 7 3 4 1019.5 1017.9 0.0
21/11:00pm 15.1 13.9 8.1 63 3.6 ENE 4 7 2 4 1019.6 1018.0 0.0
21/10:30pm 14.5 13.2 9.1 70 2.8 ENE 6 9 3 5 1019.9 1018.4 0.0
21/10:00pm 14.4 13.1 9.8 74 2.4 ENE 7 11 4 6 1019.9 1018.4 0.0
21/09:30pm 13.6 12.3 9.8 78 2.0 ENE 7 13 4 7 1019.7 1018.1 0.0
21/09:00pm 13.8 12.4 9.6 76 2.2 E 7 13 4 7 1019.5 1017.9 0.0
21/08:30pm 13.9 12.6 9.9 77 2.1 ENE 7 11 4 6 1019.4 1017.8 0.0
21/08:00pm 14.5 13.2 9.9 74 2.4 ENE 7 11 4 6 1019.2 1017.6 0.0
21/07:30pm 15.8 14.7 10.1 69 3.1 ESE 6 7 3 4 1019.3 1017.7 0.0
21/07:00pm 16.6 15.5 9.8 64 3.6 ESE 6 9 3 5 1019.2 1017.6 0.0
21/06:30pm 17.6 16.2 7.1 50 5.4 ESE 4 6 2 3 1019.2 1017.6 0.0
21/06:00pm 18.2 16.5 7.6 50 5.5 E 6 9 3 5 1019.1 1017.5 0.0
21/05:30pm 18.7 17.1 8.1 50 5.6 ENE 6 11 3 6 1019.3 1017.7 0.0
21/05:00pm 19.0 18.0 8.9 52 5.4 ENE 4 9 2 5 1019.6 1018.0 0.0
21/04:30pm 19.3 18.2 9.8 54 5.2 ESE 6 11 3 6 1019.8 1018.3 0.0
21/04:00pm 19.9 19.2 10.0 53 5.4 SW 4 7 2 4 1020.0 1018.5 0.0
21/03:30pm 19.2 17.8 8.8 51 5.6 ESE 6 9 3 5 1020.3 1018.8 0.0
21/03:00pm 19.3 18.2 8.3 49 5.8 SW 4 7 2 4 1020.5 1019.0 0.0
21/02:30pm 18.4 17.4 8.9 54 5.1 E 4 9 2 5 1020.8 1019.3 0.0
21/02:00pm 17.9 17.0 9.3 57 4.6 ENE 4 7 2 4 1021.1 1019.5 0.0
21/01:30pm 16.8 16.1 8.5 58 4.4 S 2 6 1 3 1021.4 1019.8 0.0
21/01:00pm 15.5 15.1 9.8 69 3.0 W 2 6 1 3 1021.9 1020.4 0.0
21/12:30pm 16.0 14.7 9.2 64 3.6 WNW 6 9 3 5 1021.9 1020.4 0.0
21/12:00pm 13.8 12.9 7.8 67 3.0 W 2 7 1 4 1021.9 1020.4 0.0
21/11:30am 13.3 12.3 7.5 68 2.9 NE 2 4 1 2 1022.0 1020.5 0.0
21/11:00am 13.4 12.1 7.8 69 2.8 NW 4 6 2 3 1022.2 1020.7 0.0
21/10:30am 14.3 13.8 9.3 72 2.6 NNE 2 6 1 3 1022.1 1020.6 0.0
21/10:00am 13.2 12.1 8.5 73 2.4 WNW 4 7 2 4 1022.0 1020.5 0.0
21/09:30am 13.1 12.5 9.0 76 2.1 W 2 4 1 2 1021.8 1020.3 0.0
21/09:00am 11.5 11.1 8.2 80 1.7 CALM 0 2 0 1 1021.5 1019.9 11.0
21/08:30am 10.9 10.2 8.7 86 1.1 WNW 2 4 1 2 1021.2 1019.6 11.0
21/08:00am 9.5 8.0 8.3 92 0.6 NW 6 7 3 4 1020.8 1019.3 11.0
21/07:30am 8.1 6.3 7.3 95 0.4 WNW 6 9 3 5 1020.5 1019.0 11.0
21/07:00am 7.5 5.4 6.8 95 0.3 NW 7 9 4 5 1020.0 1018.5 11.0
21/06:30am 7.3 5.8 6.6 95 0.3 WNW 4 6 2 3 1019.5 1017.9 11.0
21/06:00am 7.3 5.8 6.6 95 0.3 WNW 4 6 2 3 1019.3 1017.7 11.0
21/05:30am 7.4 5.8 6.5 94 0.4 WNW 4 6 2 3 1019.3 1017.7 11.0
21/05:00am 7.7 5.8 6.8 94 0.4 NW 6 7 3 4 1019.1 1017.5 11.0
21/04:30am 8.1 6.3 7.2 94 0.4 WNW 6 9 3 5 1019.0 1017.4 11.0
21/04:00am 8.0 6.2 7.1 94 0.4 WNW 6 7 3 4 1018.9 1017.3 11.0
21/03:30am 8.0 6.6 7.1 94 0.4 NW 4 6 2 3 1018.7 1017.2 11.0
21/03:00am 8.4 7.1 7.5 94 0.4 W 4 4 2 2 1018.6 1017.1 11.0
21/02:30am 8.7 7.8 7.6 93 0.5 W 2 4 1 2 1018.7 1017.2 11.0
21/02:00am 9.1 7.9 7.9 92 0.6 W 4 4 2 2 1018.9 1017.3 11.0
21/01:30am 9.8 9.0 8.1 89 0.8 NW 2 2 1 1 1019.0 1017.4 11.0
21/01:00am 10.3 9.5 8.2 87 1.0 NW 2 6 1 3 1019.2 1017.6 11.0
21/12:30am 10.7 10.4 8.5 86 1.1 CALM 0 0 0 0 1019.2 1017.6 11.0
21/12:00am 10.8 10.5 8.6 86 1.1 CALM 0 0 0 0 1019.0 1017.4 11.0
 
Date/Time
EDT
Temp
°C
App
Temp
°C
Dew
Point
°C
Rel
Hum
%
Delta-T
°C
Wind Press
QNH
hPa
Press
MSL
hPa
Rain since
9am
mm
Dir  Spd
km/h
Gust
km/h
Spd
kts
Gust
kts
20/11:30pm 10.9 10.2 8.5 85 1.2 WSW 2 4 1 2 1019.0 1017.4 11.0
20/11:00pm 10.9 10.2 8.7 86 1.1 W 2 9 1 5 1018.9 1017.3 11.0
20/10:30pm 11.0 10.4 8.8 86 1.1 W 2 6 1 3 1018.7 1017.2 11.0
20/10:00pm 10.7 9.2 8.6 87 1.1 W 6 11 3 6 1018.4 1016.9 11.0
20/09:30pm 10.7 9.2 8.5 86 1.1 W 6 15 3 8 1018.1 1016.6 11.0
20/09:00pm 10.9 9.8 8.3 84 1.3 WSW 4 11 2 6 1017.6 1016.0 11.0
20/08:30pm 10.9 9.2 7.6 80 1.6 W 6 22 3 12 1017.2 1015.6 11.0
20/08:00pm 11.4 9.7 7.5 77 1.9 WSW 6 17 3 9 1016.7 1015.2 11.0
20/07:30pm 12.0 10.4 8.1 77 2.0 WSW 6 13 3 7 1016.3 1014.7 11.0
20/07:00pm 12.4 10.7 8.3 76 2.1 WSW 7 15 4 8 1015.9 1014.3 11.0
20/06:30pm 13.0 11.4 8.7 75 2.2 WSW 7 15 4 8 1015.6 1014.0 11.0
20/06:00pm 13.2 11.1 8.3 72 2.5 WSW 9 24 5 13 1015.4 1013.8 11.0

Other Formats:

Comma delimited format used in spreadsheet applications
http://www.bom.gov.au/fwo/IDV60801/IDV60801.94872.axf

JavaScript Object Notation format (JSON) in row-major order
http://www.bom.gov.au/fwo/IDV60801/IDV60801.94872.json